Time;durP1;ratioP1;P1;durP2;ratioP2;P2;SDS_P1;SDS_P2;PMS_P1;PMS_P2;Temp;Humidity;BMP_temperature;BMP_pressure;BME280_temperature;BME280_humidity;BME280_pressure;Samples;Min_cycle;Max_cycle;Signal;HPM_P1;HPM_P2
2021/12/08 00:02:33;;;;;;;0.70;0.70;;;1.10;99.90;;;;;;5054895;28;20475;-68
2021/12/08 00:05:20;;;;;;;0.43;0.43;;;1.20;99.90;;;;;;5054265;28;20849;-68
2021/12/08 00:08:08;;;;;;;2.00;1.37;;;1.10;99.90;;;;;;5060057;28;20428;-68
2021/12/08 00:14:01;;;;;;;0.40;0.40;;;1.20;99.90;;;;;;5063179;28;20409;-67
2021/12/08 00:16:49;;;;;;;0.40;0.40;;;1.30;99.90;;;;;;5061660;28;20435;-67
2021/12/08 00:19:36;;;;;;;0.40;0.40;;;1.30;99.90;;;;;;5059839;28;20526;-68
2021/12/08 00:22:23;;;;;;;0.80;0.80;;;1.30;99.90;;;;;;5054180;28;20972;-68
2021/12/08 00:25:10;;;;;;;0.47;0.47;;;1.30;99.90;;;;;;5033869;28;20428;-69
2021/12/08 00:27:58;;;;;;;0.40;0.40;;;1.40;99.90;;;;;;5033356;28;20421;-69
2021/12/08 00:30:48;;;;;;;3.07;2.87;;;1.30;99.90;;;;;;5032927;28;20476;-69
2021/12/08 00:33:37;;;;;;;2.93;2.73;;;1.20;99.90;;;;;;5033503;28;20417;-68
2021/12/08 00:36:30;;;;;;;1.23;1.00;;;1.20;99.90;;;;;;5033322;28;20426;-68
2021/12/08 00:39:17;;;;;;;0.40;0.40;;;1.20;99.90;;;;;;5033164;28;20536;-68
2021/12/08 00:42:05;;;;;;;2.03;1.93;;;1.20;99.90;;;;;;5033116;28;20467;-68
2021/12/08 00:44:52;;;;;;;0.43;0.43;;;1.20;99.90;;;;;;5033420;28;20421;-68
2021/12/08 00:47:40;;;;;;;0.73;0.73;;;1.20;99.90;;;;;;5033363;28;20433;-68
2021/12/08 00:50:32;;;;;;;0.40;0.40;;;1.30;99.90;;;;;;5032951;28;20477;-69
2021/12/08 00:53:20;;;;;;;0.40;0.40;;;1.30;99.90;;;;;;5033478;28;20425;-68
2021/12/08 00:56:07;;;;;;;0.70;0.70;;;1.20;99.90;;;;;;5034221;28;20522;-68
2021/12/08 00:58:54;;;;;;;0.50;0.50;;;1.30;99.90;;;;;;5068527;22;20495;-69
2021/12/08 01:01:42;;;;;;;0.40;0.40;;;1.30;99.90;;;;;;5098560;28;20414;-69
2021/12/08 01:04:30;;;;;;;0.40;0.40;;;1.30;99.90;;;;;;5098585;28;20480;-69
2021/12/08 01:07:18;;;;;;;3.70;3.50;;;1.20;99.90;;;;;;5097897;28;20414;-69
2021/12/08 01:10:07;;;;;;;0.50;0.50;;;1.20;99.90;;;;;;5095159;28;20453;-70
2021/12/08 01:12:55;;;;;;;0.40;0.40;;;1.10;99.90;;;;;;5094513;28;20469;-69
2021/12/08 01:15:49;;;;;;;1.07;1.03;;;1.10;99.90;;;;;;5093559;28;20446;-71
2021/12/08 01:18:36;;;;;;;0.50;0.50;;;1.10;99.90;;;;;;5093905;28;20736;-70
2021/12/08 01:21:23;;;;;;;2.63;1.23;;;1.30;99.90;;;;;;5094982;28;20422;-70
2021/12/08 01:24:11;;;;;;;2.40;2.30;;;1.10;99.90;;;;;;5095006;28;20450;-69
2021/12/08 01:26:58;;;;;;;0.50;0.50;;;1.10;99.90;;;;;;5093212;28;20419;-69
2021/12/08 01:29:48;;;;;;;0.60;0.60;;;1.10;99.90;;;;;;5094002;28;20435;-69
2021/12/08 01:32:35;;;;;;;0.40;0.40;;;1.20;99.90;;;;;;5092856;28;20414;-70
2021/12/08 01:35:22;;;;;;;1.07;1.07;;;1.20;99.90;;;;;;5092844;28;20425;-69
2021/12/08 01:38:09;;;;;;;3.13;3.03;;;1.10;99.90;;;;;;5093515;28;20938;-70
2021/12/08 01:40:58;;;;;;;1.27;1.27;;;1.10;99.90;;;;;;5093823;28;20476;-69
2021/12/08 01:45:57;;;;;;;1.03;1.03;;;1.20;99.90;;;;;;5094409;28;20514;-68
2021/12/08 01:46:52;;;;;;;1.17;1.10;;;1.30;99.90;;;;;;5093478;28;20809;-69
2021/12/08 01:49:39;;;;;;;0.60;0.60;;;1.20;99.90;;;;;;5096264;28;20829;-71
2021/12/08 01:52:26;;;;;;;0.93;0.60;;;1.20;99.90;;;;;;5103987;28;20465;-69
2021/12/08 01:55:13;;;;;;;0.50;0.50;;;1.10;99.90;;;;;;5094020;28;20426;-69
2021/12/08 01:58:01;;;;;;;1.00;1.00;;;1.20;99.90;;;;;;5095430;28;20458;-70
2021/12/08 02:00:51;;;;;;;0.60;0.60;;;1.10;99.90;;;;;;5101035;28;20439;-70
2021/12/08 02:03:39;;;;;;;0.40;0.40;;;1.10;99.90;;;;;;5108782;28;20528;-70
2021/12/08 02:06:26;;;;;;;0.50;0.50;;;1.20;99.90;;;;;;5109772;28;20435;-71
2021/12/08 02:09:15;;;;;;;1.23;1.13;;;1.10;99.90;;;;;;5109286;28;20443;-69
2021/12/08 02:12:03;;;;;;;1.47;1.43;;;1.10;99.90;;;;;;5108650;28;20416;-70
2021/12/08 02:14:51;;;;;;;1.07;1.07;;;1.10;99.90;;;;;;5112407;28;20426;-70
2021/12/08 02:17:39;;;;;;;0.97;0.97;;;1.10;99.90;;;;;;5112514;28;20481;-73
2021/12/08 02:20:28;;;;;;;0.40;0.40;;;1.00;99.90;;;;;;5112165;28;20698;-69
2021/12/08 02:23:17;;;;;;;0.50;0.50;;;1.10;99.90;;;;;;5112343;28;20474;-69
2021/12/08 02:26:04;;;;;;;1.23;1.23;;;1.20;99.90;;;;;;5113251;28;20427;-70
2021/12/08 02:28:52;;;;;;;0.67;0.67;;;1.10;99.90;;;;;;5111542;28;20469;-70
2021/12/08 02:31:46;;;;;;;0.50;0.50;;;1.10;99.90;;;;;;5112533;28;20441;-70
2021/12/08 02:47:06;;;;;;;0.67;0.67;;;1.10;99.90;;;;;;5092887;28;20785;-69
2021/12/08 02:49:53;;;;;;;1.57;1.47;;;1.20;99.90;;;;;;5104604;28;20476;-70
2021/12/08 02:52:40;;;;;;;17.17;12.87;;;1.10;99.90;;;;;;5086872;28;20424;-71
2021/12/08 02:55:27;;;;;;;0.73;0.73;;;1.10;99.90;;;;;;5083222;28;20461;-69
2021/12/08 02:58:17;;;;;;;0.40;0.40;;;1.20;99.90;;;;;;5077432;28;20420;-69
2021/12/08 03:01:08;;;;;;;0.60;0.60;;;1.20;99.90;;;;;;5086333;28;20445;-71
2021/12/08 03:03:55;;;;;;;1.13;1.03;;;1.20;99.90;;;;;;5086497;28;20469;-69
2021/12/08 03:06:42;;;;;;;0.90;0.90;;;1.10;99.90;;;;;;5086680;28;20902;-70
2021/12/08 03:09:29;;;;;;;0.93;0.93;;;1.10;99.90;;;;;;5086579;28;20451;-69
2021/12/08 03:12:27;;;;;;;1.23;0.70;;;1.10;99.90;;;;;;5087564;28;20428;-70
2021/12/08 03:15:15;;;;;;;3.37;3.07;;;1.00;99.90;;;;;;5088372;28;20481;-70
2021/12/08 03:18:02;;;;;;;1.33;1.23;;;1.00;99.90;;;;;;5090680;28;20424;-70
2021/12/08 03:20:51;;;;;;;0.50;0.50;;;1.00;99.90;;;;;;5080101;28;20994;-69
2021/12/08 03:23:54;;;;;;;0.60;0.60;;;1.00;99.90;;;;;;5090639;28;20462;-68
2021/12/08 03:26:49;;;;;;;0.50;0.50;;;1.00;99.90;;;;;;5091448;28;20421;-69
2021/12/08 03:29:45;;;;;;;1.07;1.00;;;1.00;99.90;;;;;;5091468;28;20945;-69
2021/12/08 03:32:37;;;;;;;0.83;0.83;;;1.00;99.90;;;;;;5093429;28;20422;-69
2021/12/08 03:35:25;;;;;;;0.40;0.40;;;1.00;99.90;;;;;;5095474;28;20795;-69
2021/12/08 03:38:12;;;;;;;1.57;1.47;;;1.00;99.90;;;;;;5095595;28;20426;-68
2021/12/08 03:41:02;;;;;;;0.97;0.97;;;1.10;99.90;;;;;;5095069;28;20429;-69
2021/12/08 03:43:49;;;;;;;0.40;0.40;;;1.00;99.90;;;;;;5095328;28;20523;-69
2021/12/08 03:46:41;;;;;;;0.40;0.40;;;1.00;99.90;;;;;;5095187;28;20810;-69
2021/12/08 03:49:31;;;;;;;0.57;0.57;;;1.00;99.90;;;;;;5098648;28;20588;-69
2021/12/08 03:52:18;;;;;;;3.60;1.60;;;1.00;99.90;;;;;;5096573;28;20427;-69
2021/12/08 03:55:07;;;;;;;0.60;0.60;;;1.00;99.90;;;;;;5095452;28;20438;-68
2021/12/08 03:57:54;;;;;;;0.50;0.50;;;0.90;99.90;;;;;;5095672;28;20773;-70
2021/12/08 04:00:43;;;;;;;0.93;0.60;;;0.90;99.90;;;;;;5094254;28;20461;-69
2021/12/08 04:03:32;;;;;;;0.40;0.40;;;0.90;99.90;;;;;;5095226;28;20990;-69
2021/12/08 04:06:33;;;;;;;2.90;2.70;;;0.90;99.90;;;;;;5094021;28;20561;-68
2021/12/08 04:09:29;;;;;;;0.40;0.40;;;0.90;99.90;;;;;;5095781;28;20457;-69
2021/12/08 04:12:18;;;;;;;0.40;0.40;;;1.00;99.90;;;;;;5094307;28;20434;-69
2021/12/08 04:15:06;;;;;;;0.40;0.40;;;1.10;99.90;;;;;;5095034;28;20447;-69
2021/12/08 04:17:55;;;;;;;0.47;0.47;;;1.10;99.90;;;;;;5095580;28;20426;-69
2021/12/08 04:20:46;;;;;;;0.50;0.50;;;1.10;99.90;;;;;;5095239;28;20883;-69
2021/12/08 04:23:38;;;;;;;0.40;0.40;;;1.10;99.90;;;;;;5094649;28;20466;-69
2021/12/08 04:26:29;;;;;;;0.40;0.40;;;1.10;99.90;;;;;;5094786;28;21052;-69
2021/12/08 04:29:16;;;;;;;0.57;0.57;;;1.10;99.90;;;;;;5093690;28;20497;-70
2021/12/08 04:32:05;;;;;;;0.40;0.40;;;1.10;99.90;;;;;;5095746;28;20427;-69
2021/12/08 04:34:59;;;;;;;1.03;1.03;;;1.20;99.90;;;;;;5093922;28;20966;-69
2021/12/08 04:37:51;;;;;;;1.30;0.83;;;1.30;99.90;;;;;;5092863;28;20498;-69
2021/12/08 04:40:52;;;;;;;0.40;0.40;;;1.20;99.90;;;;;;5093155;28;20458;-69
2021/12/08 04:43:49;;;;;;;1.27;0.80;;;1.20;99.90;;;;;;5092049;28;20480;-68
2021/12/08 04:46:55;;;;;;;0.40;0.40;;;1.10;99.90;;;;;;5094557;28;20942;-69
2021/12/08 04:50:16;;;;;;;0.40;0.40;;;1.10;99.90;;;;;;5092994;28;20450;-69
2021/12/08 04:53:10;;;;;;;0.60;0.60;;;1.10;99.90;;;;;;5095632;28;20425;-70
2021/12/08 05:05:22;;;;;;;0.97;0.97;;;1.10;99.90;;;;;;5094103;28;20415;-69
2021/12/08 05:08:15;;;;;;;0.57;0.57;;;1.10;99.90;;;;;;5094069;28;20480;-69
2021/12/08 05:11:04;;;;;;;0.77;0.77;;;1.10;99.90;;;;;;5093203;28;20411;-70
2021/12/08 05:13:55;;;;;;;0.40;0.40;;;1.30;99.90;;;;;;5094154;28;20423;-69
2021/12/08 05:16:44;;;;;;;0.40;0.40;;;1.20;99.90;;;;;;5092359;28;20411;-68
2021/12/08 05:19:34;;;;;;;0.40;0.40;;;1.30;99.90;;;;;;5092522;28;20469;-68
2021/12/08 05:22:25;;;;;;;0.40;0.40;;;1.10;99.90;;;;;;5093876;28;20801;-69
2021/12/08 05:25:16;;;;;;;0.80;0.80;;;1.20;99.90;;;;;;5093831;28;20454;-69
2021/12/08 05:28:08;;;;;;;0.50;0.50;;;1.20;99.90;;;;;;5093512;28;20419;-73
2021/12/08 05:30:59;;;;;;;2.20;0.80;;;1.20;99.90;;;;;;5093552;28;20423;-69
2021/12/08 05:33:47;;;;;;;0.50;0.50;;;1.10;99.90;;;;;;5093982;28;20411;-68
2021/12/08 05:36:35;;;;;;;0.40;0.40;;;1.10;99.90;;;;;;5094974;28;20415;-69
2021/12/08 05:39:25;;;;;;;0.40;0.40;;;1.00;99.90;;;;;;5093209;28;20438;-69
2021/12/08 05:42:15;;;;;;;0.40;0.40;;;1.10;99.90;;;;;;5093357;28;20426;-69
2021/12/08 05:45:05;;;;;;;1.77;0.60;;;1.10;99.90;;;;;;5093116;28;20498;-69
2021/12/08 05:47:55;;;;;;;7.30;3.70;;;1.10;99.90;;;;;;5092866;28;20488;-68
2021/12/08 05:50:49;;;;;;;0.70;0.70;;;1.00;99.90;;;;;;5093220;28;20453;-69
2021/12/08 05:53:38;;;;;;;0.40;0.40;;;1.00;99.90;;;;;;5093375;28;20433;-70
2021/12/08 05:56:25;;;;;;;0.47;0.47;;;1.10;99.90;;;;;;5093806;28;20419;-70
2021/12/08 05:59:13;;;;;;;5.03;2.20;;;1.00;99.90;;;;;;5093088;28;20540;-70
2021/12/08 06:02:06;;;;;;;0.50;0.50;;;1.00;99.90;;;;;;5093490;28;20423;-69
2021/12/08 06:04:53;;;;;;;0.60;0.60;;;1.10;99.90;;;;;;5093822;28;20990;-69
2021/12/08 06:07:42;;;;;;;0.40;0.40;;;1.10;99.90;;;;;;5094007;28;20433;-69
2021/12/08 06:10:32;;;;;;;0.40;0.40;;;1.10;99.90;;;;;;5092357;28;21008;-69
2021/12/08 06:13:19;;;;;;;1.33;1.27;;;1.10;99.90;;;;;;5093402;28;20415;-69
2021/12/08 06:16:07;;;;;;;0.40;0.40;;;1.10;99.90;;;;;;5093138;28;20426;-69
2021/12/08 06:18:56;;;;;;;3.83;2.43;;;1.10;99.90;;;;;;5093300;28;20453;-69
2021/12/08 06:21:44;;;;;;;1.77;1.17;;;1.00;99.90;;;;;;5094053;28;20418;-69
2021/12/08 06:24:31;;;;;;;0.40;0.40;;;0.90;99.90;;;;;;5094510;28;20481;-69
2021/12/08 06:27:18;;;;;;;3.60;1.30;;;0.90;99.90;;;;;;5093390;28;20430;-69
2021/12/08 06:30:08;;;;;;;6.10;2.00;;;1.00;99.90;;;;;;5092404;28;20455;-69
2021/12/08 06:32:55;;;;;;;1.77;1.67;;;0.90;99.90;;;;;;5093686;28;20840;-69
2021/12/08 06:35:47;;;;;;;0.50;0.50;;;0.80;99.90;;;;;;5093197;28;20456;-69
2021/12/08 06:38:34;;;;;;;0.50;0.50;;;0.90;99.90;;;;;;5094442;28;20452;-69
2021/12/08 06:41:24;;;;;;;1.77;1.67;;;0.80;99.90;;;;;;5093238;28;20450;-69
2021/12/08 06:44:17;;;;;;;0.40;0.40;;;0.80;99.90;;;;;;5093215;28;20465;-69
2021/12/08 06:47:05;;;;;;;0.50;0.50;;;0.80;99.90;;;;;;5093608;28;20565;-70
2021/12/08 06:49:55;;;;;;;0.43;0.43;;;0.80;99.90;;;;;;5091860;28;20950;-69
2021/12/08 06:52:43;;;;;;;0.40;0.40;;;0.70;99.90;;;;;;5092712;28;20959;-69
2021/12/08 06:55:36;;;;;;;0.40;0.40;;;0.70;99.90;;;;;;5092424;28;20431;-68
2021/12/08 06:58:27;;;;;;;0.50;0.50;;;0.80;99.90;;;;;;5102479;28;20969;-69
2021/12/08 07:01:26;;;;;;;2.70;2.50;;;0.70;99.90;;;;;;5079346;22;20490;-68
2021/12/08 07:04:28;;;;;;;0.40;0.40;;;0.70;99.90;;;;;;5061066;28;20500;-67
2021/12/08 07:07:17;;;;;;;0.40;0.40;;;0.70;99.90;;;;;;5059151;28;20514;-68
2021/12/08 07:10:09;;;;;;;0.43;0.43;;;0.70;99.90;;;;;;5058048;28;20457;-68
2021/12/08 07:12:59;;;;;;;0.50;0.50;;;0.70;99.90;;;;;;5056765;28;20425;-68
2021/12/08 07:15:50;;;;;;;0.40;0.40;;;0.70;99.90;;;;;;5072754;28;20428;-68
2021/12/08 07:18:50;;;;;;;0.40;0.40;;;0.70;99.90;;;;;;5064201;28;20436;-68
2021/12/08 07:21:41;;;;;;;1.13;1.07;;;0.80;99.90;;;;;;5076452;28;20430;-68
2021/12/08 07:24:33;;;;;;;0.40;0.40;;;0.70;99.90;;;;;;5065505;28;20468;-68
2021/12/08 07:27:25;;;;;;;0.40;0.40;;;0.70;99.90;;;;;;5056729;28;20428;-70
2021/12/08 07:30:16;;;;;;;0.40;0.40;;;0.80;99.90;;;;;;5058489;28;20502;-69
2021/12/08 07:33:04;;;;;;;0.40;0.40;;;0.80;99.90;;;;;;5070361;28;20435;-69
2021/12/08 07:35:56;;;;;;;0.43;0.43;;;0.80;99.90;;;;;;5066143;28;20432;-69
2021/12/08 07:38:46;;;;;;;0.40;0.40;;;0.70;99.90;;;;;;5070694;28;20432;-69
2021/12/08 07:41:35;;;;;;;0.40;0.40;;;0.70;99.90;;;;;;5055215;28;20469;-69
2021/12/08 07:44:25;;;;;;;0.50;0.50;;;0.80;99.90;;;;;;5056299;28;20495;-67
2021/12/08 07:47:15;;;;;;;0.40;0.40;;;0.80;99.90;;;;;;5052404;28;20443;-68
2021/12/08 07:50:08;;;;;;;0.83;0.83;;;0.90;99.90;;;;;;5049968;28;20503;-69
2021/12/08 07:52:56;;;;;;;0.40;0.40;;;0.90;99.90;;;;;;5051328;28;20952;-69
2021/12/08 07:55:45;;;;;;;2.77;1.47;;;1.00;99.90;;;;;;5050982;28;20455;-68
2021/12/08 07:58:35;;;;;;;0.40;0.40;;;1.00;99.90;;;;;;5050910;28;20471;-68
2021/12/08 08:01:26;;;;;;;0.40;0.40;;;1.00;99.90;;;;;;5050591;28;20487;-69
2021/12/08 08:04:17;;;;;;;0.40;0.40;;;0.90;99.90;;;;;;5049908;28;20582;-69
2021/12/08 08:07:06;;;;;;;0.50;0.50;;;1.10;99.90;;;;;;5049682;28;20440;-68
2021/12/08 08:10:00;;;;;;;0.63;0.63;;;0.90;99.90;;;;;;5050601;28;20444;-69
2021/12/08 08:12:49;;;;;;;0.40;0.40;;;1.10;99.90;;;;;;5050901;28;20447;-70
2021/12/08 08:15:43;;;;;;;1.60;1.50;;;1.00;99.90;;;;;;5049542;28;20948;-69
2021/12/08 08:18:31;;;;;;;1.13;1.13;;;1.20;99.90;;;;;;5049430;28;20441;-68
2021/12/08 08:21:26;;;;;;;0.40;0.40;;;1.20;99.90;;;;;;5050469;28;20451;-69
2021/12/08 08:24:14;;;;;;;0.40;0.40;;;1.20;99.90;;;;;;5050891;28;20478;-68
2021/12/08 08:27:04;;;;;;;0.50;0.50;;;1.30;99.90;;;;;;5050137;28;20695;-69
2021/12/08 08:29:54;;;;;;;0.40;0.40;;;1.20;99.90;;;;;;5048979;28;20971;-69
2021/12/08 08:32:41;;;;;;;0.50;0.50;;;1.20;99.90;;;;;;5050203;28;20429;-69
2021/12/08 08:35:34;;;;;;;0.40;0.40;;;1.20;99.90;;;;;;5049826;28;20429;-69
2021/12/08 08:38:28;;;;;;;0.50;0.50;;;1.20;99.90;;;;;;5049046;28;21097;-68
2021/12/08 08:41:19;;;;;;;0.40;0.40;;;1.20;99.90;;;;;;5050682;28;20522;-69
2021/12/08 08:44:11;;;;;;;0.50;0.50;;;1.30;99.90;;;;;;5050152;28;20487;-69
2021/12/08 08:47:01;;;;;;;0.50;0.50;;;1.30;99.90;;;;;;5049869;28;20428;-69
2021/12/08 08:49:49;;;;;;;0.40;0.40;;;1.30;99.90;;;;;;5048892;28;20455;-71
2021/12/08 08:52:40;;;;;;;0.40;0.40;;;1.20;99.90;;;;;;5049739;28;20944;-69
2021/12/08 08:55:35;;;;;;;0.50;0.50;;;1.30;99.90;;;;;;5049295;28;20431;-68
2021/12/08 08:58:25;;;;;;;1.80;1.23;;;1.30;99.90;;;;;;5049126;28;20436;-69
2021/12/08 09:01:15;;;;;;;1.23;1.23;;;1.30;99.90;;;;;;5048487;28;20460;-69
2021/12/08 09:04:07;;;;;;;1.80;1.70;;;1.40;99.90;;;;;;5048712;28;20447;-69
2021/12/08 09:07:02;;;;;;;9.23;8.63;;;1.40;99.90;;;;;;5049724;28;20429;-69
2021/12/08 09:09:53;;;;;;;0.40;0.40;;;1.40;99.90;;;;;;5048392;28;20453;-69
2021/12/08 09:12:43;;;;;;;0.50;0.50;;;1.60;99.90;;;;;;5049464;28;20428;-68
2021/12/08 09:15:33;;;;;;;2.43;1.43;;;1.60;99.90;;;;;;5049435;28;20441;-68
2021/12/08 09:18:24;;;;;;;0.40;0.40;;;1.60;99.90;;;;;;5049255;28;20476;-69
2021/12/08 09:21:18;;;;;;;0.40;0.40;;;1.60;99.90;;;;;;5048462;28;20545;-69
2021/12/08 09:24:11;;;;;;;0.90;0.90;;;1.70;99.90;;;;;;5048886;28;20440;-69
2021/12/08 09:27:01;;;;;;;1.43;1.43;;;1.70;99.90;;;;;;5048897;28;20436;-68
2021/12/08 09:29:55;;;;;;;10.47;4.20;;;1.70;99.90;;;;;;5047849;28;20459;-69
2021/12/08 09:32:45;;;;;;;0.50;0.50;;;1.70;99.90;;;;;;5048478;28;20484;-68
2021/12/08 09:35:37;;;;;;;3.00;1.90;;;1.80;99.90;;;;;;5048883;28;20433;-68
2021/12/08 09:38:28;;;;;;;0.50;0.50;;;1.70;99.90;;;;;;5050831;28;20503;-68
2021/12/08 09:41:25;;;;;;;3.53;1.73;;;1.70;99.90;;;;;;5048734;28;20968;-69
2021/12/08 09:44:16;;;;;;;0.57;0.57;;;1.90;99.90;;;;;;5048754;28;20462;-69
2021/12/08 09:47:04;;;;;;;1.17;1.13;;;1.70;99.90;;;;;;5049959;28;20420;-69
2021/12/08 09:49:51;;;;;;;4.93;1.33;;;1.80;99.90;;;;;;5049524;28;20498;-68
2021/12/08 09:52:38;;;;;;;0.40;0.40;;;1.80;99.90;;;;;;5053893;28;20437;-69
2021/12/08 09:55:25;;;;;;;0.40;0.40;;;1.90;99.90;;;;;;5055401;28;20425;-69
2021/12/08 09:58:12;;;;;;;0.80;0.80;;;1.90;99.90;;;;;;5050702;28;20435;-68
2021/12/08 10:01:02;;;;;;;1.43;1.33;;;1.90;99.90;;;;;;5050146;28;20471;-69
2021/12/08 10:03:51;;;;;;;0.50;0.50;;;2.20;99.90;;;;;;5049826;28;20818;-69
2021/12/08 10:06:42;;;;;;;10.00;9.10;;;2.00;99.90;;;;;;5049961;28;20520;-68
2021/12/08 10:09:29;;;;;;;0.40;0.40;;;2.10;99.90;;;;;;5050851;28;20949;-69
2021/12/08 10:12:19;;;;;;;0.90;0.90;;;2.20;99.90;;;;;;5053648;28;20428;-68
2021/12/08 10:15:10;;;;;;;0.40;0.40;;;2.30;99.90;;;;;;5055276;28;20413;-68
2021/12/08 10:18:00;;;;;;;0.40;0.40;;;2.40;99.90;;;;;;5055000;28;20440;-68
2021/12/08 10:20:49;;;;;;;0.50;0.50;;;2.60;99.90;;;;;;5055305;28;20436;-68
2021/12/08 10:23:39;;;;;;;0.50;0.50;;;2.70;99.90;;;;;;5054077;28;20424;-69
2021/12/08 10:26:26;;;;;;;2.73;1.90;;;2.70;99.90;;;;;;5060307;28;20545;-69
2021/12/08 10:29:13;;;;;;;0.40;0.40;;;2.80;99.90;;;;;;5055664;28;20431;-71
2021/12/08 10:32:02;;;;;;;0.40;0.40;;;2.80;99.90;;;;;;5054322;28;20424;-69
2021/12/08 10:34:52;;;;;;;0.50;0.50;;;3.00;99.90;;;;;;5063869;28;20420;-70
2021/12/08 10:37:39;;;;;;;0.50;0.50;;;3.10;99.90;;;;;;5054058;28;20440;-69
2021/12/08 10:40:26;;;;;;;1.23;1.23;;;3.10;99.90;;;;;;5054437;28;20436;-69
2021/12/08 10:43:14;;;;;;;0.77;0.77;;;3.10;99.90;;;;;;5057588;28;20440;-69
2021/12/08 10:46:04;;;;;;;0.40;0.40;;;3.20;99.90;;;;;;5056418;28;20507;-69
2021/12/08 10:48:53;;;;;;;0.50;0.50;;;3.20;99.90;;;;;;5068433;28;20442;-69
2021/12/08 10:54:51;;;;;;;0.70;0.70;;;3.30;99.90;;;;;;5075894;28;20779;-69
2021/12/08 10:57:39;;;;;;;0.90;0.90;;;3.10;99.90;;;;;;5076288;28;20427;-69
2021/12/08 11:00:29;;;;;;;0.70;0.70;;;3.10;99.90;;;;;;5076508;28;20467;-68
2021/12/08 11:03:20;;;;;;;1.60;1.60;;;3.00;99.90;;;;;;5075273;28;20423;-68
2021/12/08 11:06:09;;;;;;;0.40;0.40;;;2.90;99.90;;;;;;5077399;28;20529;-69
2021/12/08 11:08:57;;;;;;;0.40;0.40;;;2.80;99.90;;;;;;5076782;28;20968;-69
2021/12/08 11:11:44;;;;;;;0.50;0.50;;;2.80;99.90;;;;;;5076747;28;21029;-69
2021/12/08 11:14:43;;;;;;;0.40;0.40;;;2.80;99.90;;;;;;5076603;28;20904;-69
2021/12/08 11:17:32;;;;;;;0.40;0.40;;;2.80;99.90;;;;;;5075677;28;20426;-69
2021/12/08 11:20:24;;;;;;;0.50;0.50;;;2.70;99.90;;;;;;5075374;28;20909;-69
2021/12/08 11:23:15;;;;;;;0.93;0.93;;;2.70;99.90;;;;;;5068165;28;20424;-70
2021/12/08 11:26:09;;;;;;;0.40;0.40;;;2.80;99.90;;;;;;5055543;28;20546;-69
2021/12/08 11:29:00;;;;;;;0.40;0.40;;;3.00;99.90;;;;;;5055976;28;20458;-69
2021/12/08 11:31:50;;;;;;;1.13;1.13;;;2.70;99.90;;;;;;5056199;28;20424;-69
2021/12/08 11:34:40;;;;;;;0.40;0.40;;;2.80;99.90;;;;;;5055603;28;20833;-69
2021/12/08 11:37:32;;;;;;;0.40;0.40;;;2.60;99.90;;;;;;5055538;28;20422;-69
2021/12/08 11:40:19;;;;;;;1.17;1.10;;;2.90;99.90;;;;;;5055640;28;20452;-69
2021/12/08 11:43:14;;;;;;;0.40;0.40;;;2.90;99.90;;;;;;5056553;28;20464;-69
2021/12/08 11:46:15;;;;;;;0.40;0.40;;;3.00;99.90;;;;;;5058416;28;20495;-69
2021/12/08 11:49:07;;;;;;;0.70;0.70;;;3.00;99.90;;;;;;5056831;28;20424;-69
2021/12/08 11:52:01;;;;;;;0.40;0.40;;;3.10;99.90;;;;;;5057231;28;20447;-69
2021/12/08 11:54:50;;;;;;;0.40;0.40;;;3.20;99.90;;;;;;5058266;28;20425;-69
2021/12/08 11:57:42;;;;;;;0.40;0.40;;;3.30;99.90;;;;;;5063298;28;20424;-69
2021/12/08 12:00:33;;;;;;;0.40;0.40;;;3.20;99.90;;;;;;5074793;28;20495;-69
2021/12/08 12:03:20;;;;;;;0.40;0.40;;;3.20;99.90;;;;;;5075984;28;20430;-69
2021/12/08 12:06:07;;;;;;;0.40;0.40;;;3.30;99.90;;;;;;5075463;28;20885;-69
2021/12/08 12:08:56;;;;;;;0.40;0.40;;;3.40;99.90;;;;;;5075290;28;20443;-69
2021/12/08 12:11:43;;;;;;;1.27;1.27;;;3.40;99.90;;;;;;5073633;28;20408;-69
2021/12/08 12:14:30;;;;;;;3.17;2.97;;;3.50;99.90;;;;;;5073673;28;20456;-70
2021/12/08 12:17:18;;;;;;;0.40;0.40;;;3.50;99.90;;;;;;5060207;28;20923;-70
2021/12/08 12:20:12;;;;;;;1.07;1.07;;;3.50;99.90;;;;;;5055257;28;20463;-70
2021/12/08 12:23:44;;;;;;;0.40;0.40;;;3.50;99.90;;;;;;5060619;28;20427;-69
2021/12/08 12:26:43;;;;;;;0.43;0.43;;;3.40;99.90;;;;;;5058214;28;20478;-67
2021/12/08 12:29:41;;;;;;;0.40;0.40;;;3.20;99.90;;;;;;5084438;28;20435;-67
2021/12/08 12:32:36;;;;;;;1.90;1.80;;;3.20;99.90;;;;;;5077120;28;20932;-68
2021/12/08 12:35:30;;;;;;;0.40;0.40;;;3.00;99.90;;;;;;5076387;28;20423;-68
2021/12/08 12:38:17;;;;;;;0.70;0.70;;;3.00;99.90;;;;;;5076006;28;20474;-68
2021/12/08 12:41:06;;;;;;;2.00;1.90;;;2.90;99.90;;;;;;5074855;28;20461;-68
2021/12/08 12:44:13;;;;;;;2.10;2.00;;;2.80;99.90;;;;;;5075822;28;20495;-68
2021/12/08 12:47:24;;;;;;;2.00;1.90;;;2.80;99.90;;;;;;5074409;28;20490;-68
2021/12/08 12:50:21;;;;;;;0.60;0.60;;;2.80;99.90;;;;;;5074244;28;20439;-68
2021/12/08 12:53:08;;;;;;;0.70;0.70;;;2.70;99.90;;;;;;5074595;28;20822;-68
2021/12/08 12:55:55;;;;;;;0.40;0.40;;;2.80;99.90;;;;;;5075139;28;21030;-68
2021/12/08 12:58:48;;;;;;;0.40;0.40;;;2.80;99.90;;;;;;5075331;28;20424;-68
2021/12/08 13:01:43;;;;;;;0.57;0.57;;;2.80;99.90;;;;;;5075014;28;20447;-67
2021/12/08 13:04:32;;;;;;;0.50;0.50;;;2.80;99.90;;;;;;5074643;28;20415;-67
2021/12/08 13:07:21;;;;;;;0.40;0.40;;;2.70;99.90;;;;;;5075722;28;20411;-68
2021/12/08 13:10:10;;;;;;;1.90;1.00;;;2.90;99.90;;;;;;5074948;28;20451;-68
2021/12/08 13:13:10;;;;;;;0.50;0.50;;;2.80;99.90;;;;;;5074295;28;20514;-68
2021/12/08 13:15:57;;;;;;;0.40;0.40;;;2.70;99.90;;;;;;5074724;28;20435;-68
2021/12/08 13:18:54;;;;;;;0.50;0.50;;;2.80;99.90;;;;;;5073497;28;20412;-68
2021/12/08 13:21:43;;;;;;;0.40;0.40;;;2.90;99.90;;;;;;5074750;28;20422;-68
2021/12/08 13:24:39;;;;;;;0.53;0.53;;;2.90;99.90;;;;;;5055477;28;20428;-68
2021/12/08 13:27:29;;;;;;;1.90;1.80;;;2.90;99.90;;;;;;5034063;28;20490;-67
2021/12/08 13:30:17;;;;;;;0.40;0.40;;;2.90;99.90;;;;;;5034099;28;20444;-67
2021/12/08 13:33:09;;;;;;;0.40;0.40;;;3.00;99.90;;;;;;5033827;28;20432;-68
2021/12/08 13:35:57;;;;;;;1.53;1.53;;;3.00;99.90;;;;;;5033316;28;20508;-67
2021/12/08 13:38:44;;;;;;;0.40;0.40;;;3.10;99.90;;;;;;5043722;28;20683;-68
2021/12/08 13:41:35;;;;;;;0.40;0.40;;;3.20;99.90;;;;;;5053302;28;20424;-68
2021/12/08 13:44:25;;;;;;;0.40;0.40;;;3.00;99.90;;;;;;5053447;28;20466;-67
2021/12/08 13:47:25;;;;;;;0.40;0.40;;;3.00;99.90;;;;;;5054113;28;21018;-68
2021/12/08 13:50:15;;;;;;;0.40;0.40;;;3.00;99.90;;;;;;5055298;28;20456;-67
2021/12/08 13:53:08;;;;;;;0.40;0.40;;;2.90;99.90;;;;;;5053854;28;20424;-67
2021/12/08 13:56:00;;;;;;;0.50;0.50;;;2.90;99.90;;;;;;5053406;28;20875;-68
2021/12/08 13:58:49;;;;;;;0.40;0.40;;;3.00;99.90;;;;;;5054062;28;20429;-67
2021/12/08 14:01:38;;;;;;;0.83;0.83;;;3.00;99.90;;;;;;5052201;28;20441;-68
2021/12/08 14:04:25;;;;;;;0.40;0.40;;;2.90;99.90;;;;;;5054176;28;20447;-68
2021/12/08 14:07:17;;;;;;;0.50;0.50;;;3.00;99.90;;;;;;5052719;28;20455;-68
2021/12/08 14:10:07;;;;;;;0.40;0.40;;;2.90;99.90;;;;;;5052565;28;20861;-68
2021/12/08 14:12:57;;;;;;;0.40;0.40;;;2.90;99.90;;;;;;5037845;28;20436;-68
2021/12/08 14:15:48;;;;;;;0.40;0.40;;;2.90;99.90;;;;;;5033372;28;20417;-67
2021/12/08 14:18:37;;;;;;;1.83;1.10;;;2.90;99.90;;;;;;5035247;28;20437;-68
2021/12/08 14:21:25;;;;;;;0.97;0.97;;;2.90;99.90;;;;;;5033320;28;20441;-67
2021/12/08 14:24:13;;;;;;;0.50;0.50;;;2.90;99.90;;;;;;5066151;28;20936;-68
2021/12/08 14:27:00;;;;;;;3.40;2.27;;;2.90;99.90;;;;;;5073929;28;20459;-68
2021/12/08 14:29:47;;;;;;;0.40;0.40;;;3.00;99.90;;;;;;5062052;28;20449;-68
2021/12/08 14:32:36;;;;;;;0.40;0.40;;;2.80;99.90;;;;;;5053908;28;20428;-68
2021/12/08 14:35:23;;;;;;;0.40;0.40;;;2.80;99.90;;;;;;5053081;28;20454;-68
2021/12/08 14:38:10;;;;;;;0.50;0.50;;;2.70;99.90;;;;;;5053998;28;20420;-68
2021/12/08 14:40:57;;;;;;;0.40;0.40;;;2.70;99.90;;;;;;5058539;28;20968;-68
2021/12/08 14:43:44;;;;;;;0.40;0.40;;;2.70;99.90;;;;;;5057626;28;21058;-68
2021/12/08 14:46:32;;;;;;;0.40;0.40;;;2.60;99.90;;;;;;5061317;28;20529;-68
2021/12/08 14:49:27;;;;;;;0.50;0.50;;;2.50;99.90;;;;;;5057415;28;20796;-67
2021/12/08 14:52:17;;;;;;;1.33;1.23;;;2.50;99.90;;;;;;5058063;28;20475;-68
2021/12/08 14:55:06;;;;;;;0.50;0.50;;;2.60;99.90;;;;;;5058807;28;20431;-68
2021/12/08 14:57:53;;;;;;;0.40;0.40;;;2.50;99.90;;;;;;5058899;28;20420;-68
2021/12/08 15:00:41;;;;;;;0.40;0.40;;;2.50;99.90;;;;;;5058637;28;20514;-68
2021/12/08 15:03:28;;;;;;;0.40;0.40;;;2.40;99.90;;;;;;5057711;28;20443;-68
2021/12/08 15:06:19;;;;;;;0.40;0.40;;;2.40;99.90;;;;;;5058412;28;20515;-68
2021/12/08 15:09:13;;;;;;;0.40;0.40;;;2.40;99.90;;;;;;5062853;28;20459;-68
2021/12/08 15:12:02;;;;;;;0.40;0.40;;;2.30;99.90;;;;;;5062321;28;20432;-68
2021/12/08 15:14:50;;;;;;;0.40;0.40;;;2.40;99.90;;;;;;5063220;28;20479;-68
2021/12/08 15:17:37;;;;;;;3.43;1.63;;;2.50;99.90;;;;;;5054207;28;20424;-69
2021/12/08 15:20:33;;;;;;;0.40;0.40;;;2.40;99.90;;;;;;5065630;28;20824;-67
2021/12/08 15:23:38;;;;;;;0.40;0.40;;;2.40;99.90;;;;;;5065034;28;20431;-67
2021/12/08 15:26:25;;;;;;;0.77;0.77;;;2.40;99.90;;;;;;5088045;28;20657;-68
2021/12/08 15:29:20;;;;;;;0.40;0.40;;;2.40;99.90;;;;;;5094770;28;20423;-68